Time;durP1;ratioP1;P1;durP2;ratioP2;P2;SDS_P1;SDS_P2;PMS_P1;PMS_P2;Temp;Humidity;BMP_temperature;BMP_pressure;BME280_temperature;BME280_humidity;BME280_pressure;Samples;Min_cycle;Max_cycle;Signal;HPM_P1;HPM_P2
2021/12/28 00:00:17;;;;;;;41.38;28.30;;;5.50;99.90;;;;;;5058426;28;20036;-94
2021/12/28 00:02:47;;;;;;;36.20;26.85;;;5.50;99.90;;;;;;5063324;28;20135;-92
2021/12/28 00:05:14;;;;;;;33.60;26.60;;;5.50;99.90;;;;;;5073850;28;20067;-93
2021/12/28 00:07:40;;;;;;;32.47;25.73;;;5.50;99.90;;;;;;5087062;28;20032;-92
2021/12/28 00:10:08;;;;;;;35.65;26.92;;;5.50;99.90;;;;;;5076611;28;20473;-93
2021/12/28 00:12:36;;;;;;;34.40;27.02;;;5.50;99.90;;;;;;5077684;28;20051;-92
2021/12/28 00:18:02;;;;;;;34.45;27.50;;;5.50;99.90;;;;;;5083264;28;20112;-93
2021/12/28 00:20:30;;;;;;;34.30;26.63;;;5.50;99.90;;;;;;5063113;28;20046;-93
2021/12/28 00:22:56;;;;;;;37.83;29.17;;;5.60;99.90;;;;;;5091271;28;20027;-94
2021/12/28 00:25:22;;;;;;;37.78;28.65;;;5.60;99.90;;;;;;5108404;28;20038;-93
2021/12/28 00:27:48;;;;;;;35.28;27.98;;;5.60;99.90;;;;;;5084734;28;20124;-93
2021/12/28 00:30:14;;;;;;;35.95;28.13;;;5.60;99.90;;;;;;5060729;28;20075;-93
2021/12/28 00:32:40;;;;;;;37.95;27.90;;;5.60;99.90;;;;;;5057846;28;20609;-94
2021/12/28 00:35:06;;;;;;;38.33;28.77;;;5.60;99.90;;;;;;5074453;28;20036;-93
2021/12/28 00:37:32;;;;;;;37.67;27.90;;;5.60;99.90;;;;;;5072883;28;20051;-94
2021/12/28 00:39:58;;;;;;;41.60;30.40;;;5.60;99.90;;;;;;5057038;28;20036;-93
2021/12/28 00:42:23;;;;;;;37.47;28.77;;;5.60;99.90;;;;;;5056773;28;20047;-93
2021/12/28 00:44:50;;;;;;;39.78;29.40;;;5.60;99.90;;;;;;5060549;28;20130;-94
2021/12/28 00:47:16;;;;;;;36.97;28.02;;;5.70;99.90;;;;;;5056903;28;20044;-94
2021/12/28 00:49:41;;;;;;;43.42;30.20;;;5.60;99.90;;;;;;5072374;28;20314;-93
2021/12/28 00:52:07;;;;;;;36.92;29.73;;;5.70;99.90;;;;;;5057675;28;20036;-94
2021/12/28 00:54:33;;;;;;;41.20;29.55;;;5.70;99.90;;;;;;5072174;28;20105;-93
2021/12/28 00:57:01;;;;;;;41.47;30.58;;;5.70;99.90;;;;;;5056233;28;20419;-93
2021/12/28 00:59:27;;;;;;;39.67;30.30;;;5.70;99.90;;;;;;5055749;28;20090;-94
2021/12/28 01:01:53;;;;;;;42.78;31.08;;;5.70;99.90;;;;;;5056925;28;20051;-94
2021/12/28 01:04:18;;;;;;;39.85;30.73;;;5.70;99.90;;;;;;5074645;28;20047;-93
2021/12/28 01:06:44;;;;;;;40.20;30.45;;;5.70;99.90;;;;;;5057427;28;20420;-94
2021/12/28 01:09:10;;;;;;;44.42;32.03;;;5.70;99.90;;;;;;5076156;28;20048;-94
2021/12/28 01:11:35;;;;;;;48.75;33.28;;;5.70;99.90;;;;;;5055561;28;20047;-94
2021/12/28 01:14:01;;;;;;;52.53;34.20;;;5.80;99.90;;;;;;5073852;28;20556;-94
2021/12/28 01:16:27;;;;;;;42.60;31.70;;;5.80;99.90;;;;;;5072560;28;20543;-94
2021/12/28 01:18:52;;;;;;;45.28;31.55;;;5.80;99.90;;;;;;5073373;28;20036;-93
2021/12/28 01:21:19;;;;;;;47.35;33.63;;;5.80;99.90;;;;;;5072252;28;20163;-93
2021/12/28 01:23:44;;;;;;;46.15;33.40;;;5.80;99.90;;;;;;5056457;28;20036;-93
2021/12/28 01:26:10;;;;;;;61.17;36.55;;;5.80;99.90;;;;;;5072502;28;20052;-93
2021/12/28 01:28:36;;;;;;;45.72;32.22;;;5.80;99.90;;;;;;5072250;28;20043;-93
2021/12/28 01:31:02;;;;;;;48.97;34.15;;;5.90;99.90;;;;;;5072050;28;20044;-92
2021/12/28 01:33:28;;;;;;;46.65;33.22;;;5.80;99.90;;;;;;5071890;28;20157;-94
2021/12/28 01:35:54;;;;;;;49.22;33.15;;;5.90;99.90;;;;;;5058488;28;20040;-94
2021/12/28 01:38:20;;;;;;;59.22;35.90;;;5.90;99.90;;;;;;5072634;28;20044;-93
2021/12/28 01:40:45;;;;;;;57.05;35.35;;;5.90;99.90;;;;;;5055941;28;20044;-94
2021/12/28 01:43:12;;;;;;;128.32;43.75;;;5.90;99.90;;;;;;5072356;28;20075;-93
2021/12/28 01:45:43;;;;;;;68.50;37.85;;;5.90;99.90;;;;;;5071421;28;20058;-94
2021/12/28 01:48:12;;;;;;;57.58;36.78;;;6.00;99.90;;;;;;5073313;28;20073;-93
2021/12/28 01:50:38;;;;;;;60.60;37.42;;;6.00;99.90;;;;;;5071457;28;20084;-93
2021/12/28 01:53:06;;;;;;;89.88;41.88;;;6.00;99.90;;;;;;5071765;28;20042;-94
2021/12/28 01:55:33;;;;;;;67.97;38.80;;;6.00;99.90;;;;;;5072688;28;20063;-93
2021/12/28 01:57:58;;;;;;;67.50;40.10;;;6.00;99.90;;;;;;5073251;28;20037;-94
2021/12/28 02:00:25;;;;;;;67.65;39.90;;;6.00;99.90;;;;;;5070938;28;20113;-94
2021/12/28 02:02:52;;;;;;;66.38;40.17;;;6.00;99.90;;;;;;5071905;28;20044;-93
2021/12/28 02:05:18;;;;;;;67.85;39.53;;;6.10;99.90;;;;;;5074145;28;20056;-93
2021/12/28 02:07:44;;;;;;;63.95;38.45;;;6.10;99.90;;;;;;5072172;28;20056;-94
2021/12/28 02:10:10;;;;;;;72.47;39.08;;;6.10;99.90;;;;;;5072210;28;20097;-94
2021/12/28 02:12:36;;;;;;;93.18;43.28;;;6.10;99.90;;;;;;5055098;28;20044;-93
2021/12/28 02:15:06;;;;;;;80.35;41.60;;;6.10;99.90;;;;;;5074987;28;20561;-94
2021/12/28 02:17:34;;;;;;;112.75;44.45;;;6.20;99.90;;;;;;5071938;28;20141;-94
2021/12/28 02:20:15;;;;;;;93.18;41.83;;;6.20;99.90;;;;;;5055205;28;20044;-93
2021/12/28 02:22:42;;;;;;;76.10;40.85;;;6.20;99.90;;;;;;5070412;28;20577;-93
2021/12/28 02:25:08;;;;;;;77.43;40.67;;;6.20;99.90;;;;;;5054581;28;20047;-93
2021/12/28 02:27:34;;;;;;;87.55;42.72;;;6.20;99.90;;;;;;5056639;28;20389;-94
2021/12/28 02:30:03;;;;;;;80.68;41.22;;;6.20;99.90;;;;;;5055869;28;20040;-94
2021/12/28 02:32:30;;;;;;;83.28;42.55;;;6.30;99.90;;;;;;5071489;28;20048;-93
2021/12/28 02:34:57;;;;;;;75.30;40.35;;;6.30;99.90;;;;;;5059367;28;20161;-94
2021/12/28 02:37:23;;;;;;;78.70;41.30;;;6.30;99.90;;;;;;5053680;28;20040;-93
2021/12/28 02:39:49;;;;;;;82.75;41.58;;;6.30;99.90;;;;;;5055815;28;20138;-94
2021/12/28 02:42:18;;;;;;;77.28;40.35;;;6.30;99.90;;;;;;5056275;28;20425;-94
2021/12/28 02:44:44;;;;;;;85.25;43.67;;;6.30;99.90;;;;;;5054988;28;20400;-93
2021/12/28 02:47:10;;;;;;;104.35;44.33;;;6.40;99.90;;;;;;5062732;28;20040;-94
2021/12/28 02:49:38;;;;;;;78.30;41.15;;;6.30;99.90;;;;;;5071661;28;20050;-94
2021/12/28 02:52:09;;;;;;;79.50;43.20;;;6.30;99.90;;;;;;5072563;28;20074;-93
2021/12/28 02:54:37;;;;;;;89.97;41.70;;;6.40;99.90;;;;;;5055463;28;20477;-94
2021/12/28 02:57:03;;;;;;;82.03;41.25;;;6.40;99.90;;;;;;5072874;28;20063;-94
2021/12/28 02:59:29;;;;;;;82.95;43.53;;;6.40;99.90;;;;;;5054917;28;20043;-94
2021/12/28 03:01:55;;;;;;;80.82;42.55;;;6.40;99.90;;;;;;5056435;28;20048;-94
2021/12/28 03:04:23;;;;;;;79.65;41.47;;;6.40;99.90;;;;;;5088566;28;20047;-94
2021/12/28 03:06:49;;;;;;;85.35;42.38;;;6.40;99.90;;;;;;5058346;28;20097;-94
2021/12/28 03:09:15;;;;;;;90.68;43.38;;;6.40;99.90;;;;;;5072378;28;20472;-94
2021/12/28 03:11:41;;;;;;;78.88;40.95;;;6.40;99.90;;;;;;5056957;28;20976;-94
2021/12/28 03:14:07;;;;;;;74.30;40.20;;;6.50;99.90;;;;;;5071936;28;20055;-94
2021/12/28 03:16:33;;;;;;;81.63;41.40;;;6.50;99.90;;;;;;5057084;28;20268;-94
2021/12/28 03:18:59;;;;;;;86.63;42.15;;;6.50;99.90;;;;;;5071503;28;20436;-94
2021/12/28 03:21:25;;;;;;;79.97;40.40;;;6.50;99.90;;;;;;5054145;28;20113;-94
2021/12/28 03:23:51;;;;;;;74.85;41.83;;;6.60;99.90;;;;;;5070517;28;20492;-94
2021/12/28 03:26:17;;;;;;;72.43;40.97;;;6.60;99.90;;;;;;5054728;28;20051;-94
2021/12/28 03:28:44;;;;;;;84.05;42.05;;;6.60;99.90;;;;;;5053680;28;20036;-93
2021/12/28 03:31:13;;;;;;;78.32;41.80;;;6.50;99.90;;;;;;5056636;28;20510;-94
2021/12/28 03:33:41;;;;;;;74.13;39.88;;;6.70;99.90;;;;;;5052702;28;20046;-93
2021/12/28 03:36:08;;;;;;;79.57;41.22;;;6.60;99.90;;;;;;5071061;28;20044;-93
2021/12/28 03:38:35;;;;;;;75.43;40.00;;;6.70;99.90;;;;;;5054404;28;20059;-94
2021/12/28 03:41:05;;;;;;;78.57;40.78;;;6.70;99.90;;;;;;5071899;28;20044;-94
2021/12/28 03:43:30;;;;;;;75.28;40.47;;;6.70;99.90;;;;;;5070824;28;20109;-95
2021/12/28 03:45:56;;;;;;;70.70;38.83;;;6.70;99.90;;;;;;5054768;28;20051;-94
2021/12/28 03:48:22;;;;;;;74.30;39.33;;;6.70;99.90;;;;;;5054169;28;20040;-94
2021/12/28 03:50:47;;;;;;;79.63;40.60;;;6.70;99.90;;;;;;5075231;28;20044;-94
2021/12/28 03:53:13;;;;;;;75.30;40.17;;;6.70;99.90;;;;;;5055548;28;20043;-94
2021/12/28 03:55:39;;;;;;;80.13;41.30;;;6.70;99.90;;;;;;5056923;28;20044;-93
2021/12/28 03:58:05;;;;;;;98.13;42.85;;;6.70;99.90;;;;;;5071365;28;20040;-94
2021/12/28 04:00:34;;;;;;;96.93;42.00;;;6.70;99.90;;;;;;5054099;28;20076;-94
2021/12/28 04:03:00;;;;;;;80.88;41.40;;;6.70;99.90;;;;;;5052813;28;20051;-95
2021/12/28 04:05:25;;;;;;;67.03;37.38;;;6.70;99.90;;;;;;5053503;28;20405;-94
2021/12/28 04:07:51;;;;;;;78.63;39.80;;;6.70;99.90;;;;;;5070673;28;20052;-95
2021/12/28 04:10:19;;;;;;;71.65;39.70;;;6.70;99.90;;;;;;5071303;28;20040;-93
2021/12/28 04:12:45;;;;;;;72.55;38.25;;;6.60;99.90;;;;;;5074392;28;20062;-94
2021/12/28 04:15:13;;;;;;;81.55;39.70;;;6.60;99.90;;;;;;5054310;28;20379;-94
2021/12/28 04:17:39;;;;;;;81.38;40.28;;;6.60;99.90;;;;;;5086778;28;20366;-93
2021/12/28 04:20:10;;;;;;;80.10;40.05;;;6.60;99.90;;;;;;5070521;28;20032;-93
2021/12/28 04:22:36;;;;;;;87.70;39.97;;;6.50;99.90;;;;;;5059896;28;20036;-94
2021/12/28 04:25:03;;;;;;;192.13;47.08;;;6.50;99.90;;;;;;5066092;28;20038;-94
2021/12/28 04:27:28;;;;;;;87.00;41.08;;;6.50;99.90;;;;;;5065240;28;20040;-93
2021/12/28 04:29:54;;;;;;;86.13;39.30;;;6.50;99.90;;;;;;5096634;28;20070;-93
2021/12/28 04:32:20;;;;;;;85.68;40.08;;;6.50;99.90;;;;;;5097447;28;20421;-93
2021/12/28 04:34:46;;;;;;;76.90;39.22;;;6.40;99.90;;;;;;5067335;28;20134;-94
2021/12/28 04:37:11;;;;;;;100.97;40.47;;;6.40;99.90;;;;;;5059173;28;20044;-94
2021/12/28 04:39:37;;;;;;;69.07;35.33;;;6.40;99.90;;;;;;5076507;28;20044;-94
2021/12/28 04:42:04;;;;;;;80.03;35.83;;;6.40;99.90;;;;;;5074573;28;20079;-94
2021/12/28 04:44:29;;;;;;;65.10;35.05;;;6.40;99.90;;;;;;5074439;28;20044;-94
2021/12/28 04:46:55;;;;;;;71.25;36.30;;;6.40;99.90;;;;;;5058172;28;20085;-93
2021/12/28 04:49:24;;;;;;;61.47;33.22;;;6.30;99.90;;;;;;5076494;28;20047;-94
2021/12/28 04:51:50;;;;;;;66.85;34.40;;;6.30;99.90;;;;;;5057339;28;20123;-94
2021/12/28 04:54:17;;;;;;;94.10;36.67;;;6.30;99.90;;;;;;5058030;28;20194;-94
2021/12/28 04:56:42;;;;;;;68.30;34.08;;;6.30;99.90;;;;;;5073082;28;20075;-94
2021/12/28 04:59:08;;;;;;;100.50;36.55;;;6.30;99.90;;;;;;5090694;28;20062;-94
2021/12/28 05:01:38;;;;;;;78.00;34.67;;;6.30;99.90;;;;;;5073385;28;20044;-93
2021/12/28 05:04:05;;;;;;;89.90;35.97;;;6.30;99.90;;;;;;5060485;28;20048;-94
2021/12/28 05:06:32;;;;;;;70.68;34.03;;;6.30;99.90;;;;;;5089806;28;20071;-95
2021/12/28 05:08:58;;;;;;;79.72;35.95;;;6.30;99.90;;;;;;5058553;28;20046;-93
2021/12/28 05:11:24;;;;;;;68.53;33.85;;;6.30;99.90;;;;;;5055718;28;20130;-94
2021/12/28 05:13:49;;;;;;;60.80;31.92;;;6.30;99.90;;;;;;5073677;28;20048;-93
2021/12/28 05:16:16;;;;;;;62.67;32.72;;;6.20;99.90;;;;;;5057920;28;20036;-93
2021/12/28 05:18:42;;;;;;;59.20;32.13;;;6.20;99.90;;;;;;5056227;28;20093;-93
2021/12/28 05:21:08;;;;;;;77.10;34.65;;;6.30;99.90;;;;;;5073299;28;20178;-94
2021/12/28 05:23:34;;;;;;;66.20;32.00;;;6.20;99.90;;;;;;5056986;28;20050;-94
2021/12/28 05:25:59;;;;;;;66.85;33.25;;;6.30;99.90;;;;;;5073729;28;20036;-94
2021/12/28 05:28:25;;;;;;;65.57;33.65;;;6.20;99.90;;;;;;5072761;28;20040;-94
2021/12/28 05:30:52;;;;;;;65.13;32.45;;;6.20;99.90;;;;;;5056593;28;20059;-93
2021/12/28 05:33:18;;;;;;;68.18;31.58;;;6.20;99.90;;;;;;5072676;28;20095;-94
2021/12/28 05:35:44;;;;;;;63.97;31.35;;;6.20;99.90;;;;;;5075046;28;20671;-93
2021/12/28 05:38:12;;;;;;;60.08;31.85;;;6.20;99.90;;;;;;5072784;28;20040;-94
2021/12/28 05:40:38;;;;;;;65.47;32.92;;;6.20;99.90;;;;;;5054765;28;20039;-93
2021/12/28 05:43:04;;;;;;;61.55;32.22;;;6.30;99.90;;;;;;5056609;28;20100;-93
2021/12/28 05:45:30;;;;;;;64.45;32.42;;;6.30;99.90;;;;;;5072949;28;20415;-93
2021/12/28 05:47:55;;;;;;;68.40;33.30;;;6.30;99.90;;;;;;5073961;28;20273;-94
2021/12/28 05:50:21;;;;;;;74.20;34.30;;;6.30;99.90;;;;;;5054348;28;20047;-94
2021/12/28 05:52:47;;;;;;;71.38;33.35;;;6.20;99.90;;;;;;5085944;28;20361;-93
2021/12/28 05:55:13;;;;;;;59.42;29.80;;;6.20;99.90;;;;;;5057652;28;20071;-94
2021/12/28 05:57:38;;;;;;;56.05;29.33;;;6.20;99.90;;;;;;5071729;28;20044;-93
2021/12/28 06:00:09;;;;;;;54.67;28.00;;;6.10;99.90;;;;;;5071488;28;20047;-94
2021/12/28 06:02:35;;;;;;;49.88;26.15;;;6.10;99.90;;;;;;5071649;28;20044;-94
2021/12/28 06:05:01;;;;;;;53.47;27.90;;;6.00;99.90;;;;;;5054499;28;20121;-94
2021/12/28 06:07:27;;;;;;;54.85;27.10;;;6.00;99.90;;;;;;5056136;28;20101;-94
2021/12/28 06:09:57;;;;;;;50.38;25.63;;;5.90;99.90;;;;;;5071697;28;20036;-93
2021/12/28 06:12:23;;;;;;;52.22;27.00;;;5.90;99.90;;;;;;5067883;28;20156;-93
2021/12/28 06:14:50;;;;;;;46.53;25.02;;;5.80;99.90;;;;;;5056550;28;20044;-93
2021/12/28 06:17:16;;;;;;;45.17;25.02;;;5.80;99.90;;;;;;5076383;28;20040;-94
2021/12/28 06:19:42;;;;;;;47.22;24.35;;;5.80;99.90;;;;;;5074006;28;20047;-93
2021/12/28 06:22:08;;;;;;;50.90;26.38;;;5.80;99.90;;;;;;5057619;28;20056;-93
2021/12/28 06:24:34;;;;;;;49.60;25.25;;;5.90;99.90;;;;;;5071311;28;20451;-93
2021/12/28 06:26:59;;;;;;;59.83;26.88;;;5.80;99.90;;;;;;5078428;28;20082;-94
2021/12/28 06:29:25;;;;;;;47.05;24.08;;;5.80;99.90;;;;;;5057905;28;20039;-94
2021/12/28 06:31:51;;;;;;;46.10;25.35;;;5.80;99.90;;;;;;5072343;28;20553;-93
2021/12/28 06:34:16;;;;;;;45.67;25.10;;;5.80;99.90;;;;;;5056262;28;20047;-92
2021/12/28 06:36:43;;;;;;;43.55;23.33;;;5.90;99.90;;;;;;5053542;28;20048;-91
2021/12/28 06:39:10;;;;;;;54.97;26.30;;;5.90;99.90;;;;;;5054156;28;20498;-91
2021/12/28 06:41:36;;;;;;;45.55;24.45;;;5.90;99.90;;;;;;5051622;28;20519;-90
2021/12/28 06:44:02;;;;;;;46.45;24.38;;;6.00;99.90;;;;;;5055329;28;20047;-91
2021/12/28 06:46:28;;;;;;;40.30;22.27;;;6.00;99.90;;;;;;5055144;28;20039;-92
2021/12/28 06:48:53;;;;;;;46.88;25.27;;;6.00;99.90;;;;;;5071822;28;20970;-92
2021/12/28 06:51:19;;;;;;;45.65;25.65;;;6.10;99.90;;;;;;5071970;28;20054;-93
2021/12/28 06:53:45;;;;;;;41.53;23.17;;;6.10;99.90;;;;;;5069255;28;20458;-92
2021/12/28 06:56:11;;;;;;;42.80;22.17;;;6.00;99.90;;;;;;5072498;28;20062;-93
2021/12/28 06:58:36;;;;;;;41.13;21.65;;;6.10;99.90;;;;;;5070789;28;20396;-93
2021/12/28 07:01:03;;;;;;;42.42;21.85;;;6.10;99.90;;;;;;5054405;28;20052;-92
2021/12/28 07:03:29;;;;;;;39.90;21.77;;;6.10;99.90;;;;;;5072219;28;20036;-92
2021/12/28 07:05:54;;;;;;;34.92;19.88;;;6.10;99.90;;;;;;5055018;28;20162;-92
2021/12/28 07:08:20;;;;;;;33.25;20.60;;;6.10;99.90;;;;;;5054895;28;20040;-91
2021/12/28 07:10:46;;;;;;;37.50;20.08;;;6.10;99.90;;;;;;5073204;28;20419;-94
2021/12/28 07:13:11;;;;;;;34.72;20.02;;;6.10;99.90;;;;;;5074068;28;20488;-93
2021/12/28 07:15:37;;;;;;;37.67;19.83;;;6.20;99.90;;;;;;5071193;28;20793;-92
2021/12/28 07:18:04;;;;;;;34.03;20.42;;;6.20;99.90;;;;;;5071019;28;20543;-94
2021/12/28 07:20:30;;;;;;;32.30;17.92;;;6.20;99.90;;;;;;5070264;28;20075;-92
2021/12/28 07:22:56;;;;;;;32.15;18.95;;;6.20;99.90;;;;;;5070855;28;20123;-93
2021/12/28 07:25:22;;;;;;;32.17;18.15;;;6.10;99.90;;;;;;5069740;28;20540;-93
2021/12/28 07:27:47;;;;;;;33.17;18.55;;;6.10;99.90;;;;;;5053186;28;20101;-92
2021/12/28 07:30:13;;;;;;;30.50;18.00;;;6.10;99.90;;;;;;5070373;28;20068;-90
2021/12/28 07:32:40;;;;;;;31.23;18.25;;;6.20;99.90;;;;;;5067756;28;20048;-91
2021/12/28 07:35:07;;;;;;;34.55;18.73;;;6.10;99.90;;;;;;5069444;28;20047;-90
2021/12/28 07:37:33;;;;;;;32.95;18.48;;;6.20;99.90;;;;;;5065647;28;20036;-91
2021/12/28 07:39:58;;;;;;;30.73;17.65;;;6.20;99.90;;;;;;5052049;28;20498;-91
2021/12/28 07:42:24;;;;;;;32.03;19.33;;;6.20;99.90;;;;;;5065461;28;20044;-90
2021/12/28 07:44:50;;;;;;;33.05;17.95;;;6.20;99.90;;;;;;5068006;28;20524;-89
2021/12/28 07:47:17;;;;;;;33.60;18.08;;;6.20;99.90;;;;;;5044852;28;20474;-90
2021/12/28 07:49:42;;;;;;;33.15;19.33;;;6.30;99.90;;;;;;5067378;28;20576;-90
2021/12/28 07:52:08;;;;;;;32.72;18.98;;;6.30;99.90;;;;;;5053182;28;20044;-90
2021/12/28 07:54:34;;;;;;;31.40;17.65;;;6.30;99.90;;;;;;5068027;28;20044;-91
2021/12/28 07:57:00;;;;;;;30.10;18.00;;;6.30;99.90;;;;;;5051693;28;20040;-91
2021/12/28 07:59:25;;;;;;;29.35;18.08;;;6.30;99.90;;;;;;5049503;28;20047;-91
2021/12/28 08:01:51;;;;;;;33.40;18.00;;;6.30;99.90;;;;;;5068384;28;20118;-91
2021/12/28 08:04:17;;;;;;;26.77;16.15;;;6.30;99.90;;;;;;5071247;28;20098;-92
2021/12/28 08:06:42;;;;;;;28.10;16.85;;;6.20;99.90;;;;;;5072621;28;20052;-92
2021/12/28 08:09:08;;;;;;;28.33;16.50;;;6.20;99.90;;;;;;5072997;28;20125;-93
2021/12/28 08:11:34;;;;;;;30.42;17.33;;;6.20;99.90;;;;;;5054839;28;20469;-90
2021/12/28 08:14:00;;;;;;;33.83;17.75;;;6.20;99.90;;;;;;5073799;28;20036;-91
2021/12/28 08:16:26;;;;;;;31.05;17.63;;;6.30;99.90;;;;;;5058223;28;20055;-92
2021/12/28 08:18:52;;;;;;;30.90;16.60;;;6.30;99.90;;;;;;5073307;28;20040;-93
2021/12/28 08:21:17;;;;;;;28.20;16.80;;;6.30;99.90;;;;;;5075698;28;20044;-91
2021/12/28 08:23:43;;;;;;;31.10;17.38;;;6.30;99.90;;;;;;5077129;28;20119;-92
2021/12/28 08:26:09;;;;;;;25.23;15.65;;;6.30;99.90;;;;;;5074306;28;20122;-92
2021/12/28 08:28:34;;;;;;;30.60;17.95;;;6.30;99.90;;;;;;5072290;28;20091;-90
2021/12/28 08:31:00;;;;;;;28.67;16.55;;;6.30;99.90;;;;;;5071854;28;20229;-92
2021/12/28 08:33:28;;;;;;;25.65;15.85;;;6.30;99.90;;;;;;5086974;28;20043;-88
2021/12/28 08:35:54;;;;;;;28.92;16.08;;;6.30;99.90;;;;;;5056160;28;20036;-90
2021/12/28 08:38:20;;;;;;;25.33;15.23;;;6.30;99.90;;;;;;5056120;28;20117;-91
2021/12/28 08:40:46;;;;;;;26.73;16.02;;;6.30;99.90;;;;;;5075260;28;20180;-92
2021/12/28 08:43:12;;;;;;;28.77;16.10;;;6.30;99.90;;;;;;5104782;28;20075;-91
2021/12/28 08:45:40;;;;;;;26.20;15.70;;;6.30;99.90;;;;;;5063205;28;20031;-94
2021/12/28 08:48:06;;;;;;;24.60;16.13;;;6.30;99.90;;;;;;5060076;28;20072;-93
2021/12/28 08:50:32;;;;;;;25.55;15.20;;;6.40;99.90;;;;;;5070893;28;20035;-90
2021/12/28 08:52:58;;;;;;;27.27;15.73;;;6.40;99.90;;;;;;5069680;28;20044;-89
2021/12/28 08:55:24;;;;;;;26.00;15.13;;;6.40;99.90;;;;;;5069666;28;20036;-89
2021/12/28 08:57:51;;;;;;;23.85;14.07;;;6.40;99.90;;;;;;5057128;28;20144;-89
2021/12/28 09:00:25;;;;;;;23.85;13.52;;;6.40;99.90;;;;;;5059761;28;20062;-89
2021/12/28 09:02:53;;;;;;;23.98;14.75;;;6.50;99.90;;;;;;5068905;28;20040;-92
2021/12/28 09:05:18;;;;;;;25.58;14.18;;;6.50;99.90;;;;;;5040834;28;20136;-89
2021/12/28 09:07:44;;;;;;;25.33;13.75;;;6.50;99.90;;;;;;5030094;28;20144;-90
2021/12/28 09:10:10;;;;;;;21.55;13.40;;;6.50;99.90;;;;;;5048009;28;20052;-90
2021/12/28 09:12:36;;;;;;;26.88;13.57;;;6.50;99.90;;;;;;5045435;28;20045;-89
2021/12/28 09:15:03;;;;;;;21.90;12.60;;;6.60;99.90;;;;;;5046932;28;20033;-90
2021/12/28 09:17:29;;;;;;;20.48;12.55;;;6.50;99.90;;;;;;5029061;28;20045;-89
2021/12/28 09:19:54;;;;;;;20.02;11.88;;;6.60;99.90;;;;;;5030475;28;20113;-90
2021/12/28 09:22:20;;;;;;;23.52;13.20;;;6.60;99.90;;;;;;5046385;28;20053;-90
2021/12/28 09:24:46;;;;;;;21.80;12.98;;;6.60;99.90;;;;;;5029408;28;20048;-89
2021/12/28 09:27:11;;;;;;;25.60;12.18;;;6.70;99.90;;;;;;5028893;28;20133;-89
2021/12/28 09:29:42;;;;;;;23.63;12.43;;;6.80;99.90;;;;;;5028344;28;20102;-89
2021/12/28 09:32:08;;;;;;;25.35;12.07;;;6.80;99.90;;;;;;5029035;28;20457;-89
2021/12/28 09:34:33;;;;;;;23.23;11.68;;;6.80;99.90;;;;;;5028379;28;20125;-89
2021/12/28 09:36:59;;;;;;;24.27;12.25;;;6.90;99.90;;;;;;5046710;28;20127;-90
2021/12/28 09:39:27;;;;;;;21.95;11.73;;;6.90;99.90;;;;;;5045499;28;20214;-89
2021/12/28 09:41:56;;;;;;;24.58;12.38;;;7.00;99.90;;;;;;5028972;28;20086;-90
2021/12/28 09:44:22;;;;;;;23.05;12.07;;;7.00;99.90;;;;;;5040166;28;20037;-89
2021/12/28 09:46:48;;;;;;;22.15;11.07;;;7.10;99.90;;;;;;5029529;28;20045;-92
2021/12/28 09:49:14;;;;;;;22.02;10.80;;;7.10;99.90;;;;;;5024288;28;20055;-90
2021/12/28 09:51:40;;;;;;;23.63;12.40;;;7.20;99.90;;;;;;5043975;28;20044;-90
2021/12/28 09:54:06;;;;;;;22.10;11.57;;;7.20;99.90;;;;;;5044840;28;20116;-90
2021/12/28 09:56:31;;;;;;;20.33;11.27;;;7.30;99.90;;;;;;5028431;28;20045;-90
2021/12/28 09:58:57;;;;;;;24.63;11.00;;;7.30;99.90;;;;;;5045196;28;20781;-90
2021/12/28 10:01:23;;;;;;;19.80;10.68;;;7.30;99.90;;;;;;5041277;28;20037;-89
2021/12/28 10:03:49;;;;;;;23.33;10.57;;;7.30;99.90;;;;;;5043684;28;20393;-90
2021/12/28 10:06:21;;;;;;;25.98;15.63;;;7.40;99.90;;;;;;5034341;28;20060;-90
2021/12/28 10:08:48;;;;;;;19.20;10.93;;;7.40;99.90;;;;;;5034575;28;20560;-89
2021/12/28 10:11:15;;;;;;;21.70;10.30;;;7.40;99.90;;;;;;5051770;28;20043;-91
2021/12/28 10:13:40;;;;;;;20.83;10.43;;;7.40;99.90;;;;;;5035795;28;20077;-88
2021/12/28 10:16:06;;;;;;;19.67;9.77;;;7.50;99.90;;;;;;5029610;28;20138;-91
2021/12/28 10:18:31;;;;;;;21.13;9.73;;;7.50;99.90;;;;;;5059897;28;20048;-91
2021/12/28 10:21:03;;;;;;;20.13;11.02;;;7.50;99.90;;;;;;5046910;28;20490;-91
2021/12/28 10:23:33;;;;;;;20.63;10.75;;;7.50;99.90;;;;;;5055843;28;20045;-90
2021/12/28 10:26:05;;;;;;;18.83;10.40;;;7.60;99.90;;;;;;5051131;28;20090;-90
2021/12/28 10:28:34;;;;;;;21.00;10.55;;;7.60;99.90;;;;;;5050152;28;20090;-90
2021/12/28 10:31:05;;;;;;;23.88;10.68;;;7.60;99.90;;;;;;5040711;28;20053;-91
2021/12/28 10:33:36;;;;;;;22.23;10.13;;;7.60;99.90;;;;;;5041136;28;20044;-91
2021/12/28 10:36:05;;;;;;;19.58;10.20;;;7.60;99.90;;;;;;5041437;28;20042;-90
2021/12/28 10:38:37;;;;;;;22.45;10.63;;;7.60;99.90;;;;;;5049095;28;20110;-89
2021/12/28 10:41:12;;;;;;;19.80;10.27;;;7.60;99.90;;;;;;5040700;28;20386;-88
2021/12/28 10:43:41;;;;;;;19.55;10.18;;;7.60;99.90;;;;;;5038759;28;20052;-89
2021/12/28 10:46:26;;;;;;;21.48;10.65;;;7.60;99.90;;;;;;5049833;28;20397;-88
2021/12/28 10:48:56;;;;;;;21.20;10.25;;;7.70;99.90;;;;;;5047262;28;20040;-88
2021/12/28 10:51:31;;;;;;;21.23;11.15;;;7.70;99.90;;;;;;5041687;28;20071;-90
2021/12/28 10:56:30;;;;;;;22.17;11.38;;;7.70;99.90;;;;;;5044034;28;20439;-89
2021/12/28 10:58:56;;;;;;;21.60;11.07;;;7.70;99.90;;;;;;5025611;28;20083;-89
2021/12/28 11:01:25;;;;;;;18.75;11.20;;;7.70;99.90;;;;;;5044525;28;20383;-89
2021/12/28 11:03:56;;;;;;;21.52;12.88;;;7.70;99.90;;;;;;5040175;28;20053;-90
2021/12/28 11:06:27;;;;;;;;;;;7.70;99.90;;;;;;5042223;28;20162;-91
2021/12/28 11:08:59;;;;;;;22.43;12.83;;;7.70;99.90;;;;;;5026663;28;20162;-91
2021/12/28 11:11:26;;;;;;;21.90;12.30;;;7.70;99.90;;;;;;5039172;28;21303;-90
2021/12/28 11:13:58;;;;;;;25.38;13.90;;;7.70;99.90;;;;;;5026666;28;20041;-90
2021/12/28 11:16:26;;;;;;;24.25;13.07;;;7.70;99.90;;;;;;5026279;28;20037;-90
2021/12/28 11:18:54;;;;;;;24.00;13.85;;;7.80;99.90;;;;;;5042285;28;20084;-90
2021/12/28 11:21:25;;;;;;;24.30;14.38;;;7.80;99.90;;;;;;5026101;28;20087;-90
2021/12/28 11:23:54;;;;;;;21.67;13.13;;;7.80;99.90;;;;;;5042847;28;20127;-90
2021/12/28 11:26:37;;;;;;;23.67;13.27;;;7.80;99.90;;;;;;5042907;28;20088;-90
2021/12/28 11:29:07;;;;;;;23.77;13.65;;;7.90;99.90;;;;;;5043223;28;20037;-90
2021/12/28 11:31:37;;;;;;;20.85;13.13;;;7.90;99.90;;;;;;5057105;28;20060;-90
2021/12/28 11:34:04;;;;;;;22.20;12.82;;;7.90;99.90;;;;;;5041813;28;20427;-90
2021/12/28 11:36:41;;;;;;;21.10;13.32;;;7.90;99.90;;;;;;5042266;28;20425;-90
2021/12/28 11:39:10;;;;;;;22.35;14.43;;;7.90;99.90;;;;;;5036160;28;20344;-89
2021/12/28 11:41:37;;;;;;;23.67;14.05;;;8.00;99.90;;;;;;5046001;28;20049;-90
2021/12/28 11:44:03;;;;;;;18.85;12.88;;;7.90;99.90;;;;;;5046740;28;20134;-89
2021/12/28 11:46:30;;;;;;;22.17;13.73;;;8.00;99.90;;;;;;5045560;28;20037;-90
2021/12/28 11:48:56;;;;;;;21.42;14.20;;;8.00;99.90;;;;;;5046989;28;20041;-89
2021/12/28 11:51:23;;;;;;;19.90;13.23;;;8.00;99.90;;;;;;5045514;28;20574;-89
2021/12/28 11:53:49;;;;;;;22.23;12.85;;;8.00;99.90;;;;;;5046194;28;20075;-90
2021/12/28 11:56:17;;;;;;;20.35;12.82;;;8.10;99.90;;;;;;5046615;28;20516;-90
2021/12/28 11:58:51;;;;;;;18.92;12.73;;;8.10;99.90;;;;;;5027423;28;20183;-88
2021/12/28 12:01:44;;;;;;;18.90;13.00;;;8.00;99.90;;;;;;5044496;28;20048;-90
2021/12/28 12:04:40;;;;;;;19.10;13.27;;;8.10;99.90;;;;;;5044799;28;20482;-90
2021/12/28 12:07:14;;;;;;;23.52;12.70;;;8.10;99.90;;;;;;5029433;28;20099;-90
2021/12/28 12:09:49;;;;;;;22.33;13.30;;;8.10;99.90;;;;;;5046596;28;20465;-90
2021/12/28 12:12:16;;;;;;;19.23;13.05;;;8.10;99.90;;;;;;5047372;28;20196;-91
2021/12/28 12:14:58;;;;;;;19.80;13.48;;;8.10;99.90;;;;;;5044720;28;20553;-91
2021/12/28 12:17:37;;;;;;;19.85;13.90;;;8.20;99.90;;;;;;5046998;28;20084;-90
2021/12/28 12:20:19;;;;;;;18.67;14.65;;;8.10;99.90;;;;;;5045729;28;20468;-89
2021/12/28 12:22:49;;;;;;;22.92;14.60;;;8.10;99.90;;;;;;5029324;28;20076;-90
2021/12/28 12:25:30;;;;;;;18.23;13.52;;;8.20;99.90;;;;;;5030565;28;20049;-91
2021/12/28 12:27:59;;;;;;;19.15;14.60;;;8.20;99.90;;;;;;5045964;28;20408;-91
2021/12/28 12:30:25;;;;;;;23.27;15.50;;;8.20;99.90;;;;;;5029922;28;20037;-90
2021/12/28 12:33:05;;;;;;;22.73;15.70;;;8.20;99.90;;;;;;5031061;28;20473;-92
2021/12/28 12:35:49;;;;;;;20.33;14.95;;;8.20;99.90;;;;;;5030059;28;20071;-91
2021/12/28 12:38:15;;;;;;;19.52;15.32;;;8.20;99.90;;;;;;5048090;28;20431;-90
2021/12/28 12:40:59;;;;;;;22.08;16.55;;;8.20;99.90;;;;;;5046984;28;20062;-90
2021/12/28 12:46:17;;;;;;;22.80;15.82;;;8.30;99.90;;;;;;5082025;28;20064;-88